Date,TemperatureHighF,TemperatureAvgF,TemperatureLowF,DewpointHighF,DewpointAvgF,DewpointLowF,HumidityHigh,HumidityAvg,HumidityLow,PressureMaxIn,PressureMinIn,WindSpeedMaxMPH,WindSpeedAvgMPH,GustSpeedMaxMPH,PrecipitationSumIn
2013-1-1,26,20,13,24,14,7,92,79,68,30.24,30.09,17,3,18,0.00
2013-1-2,26,17,8,11,8,4,83,69,47,30.27,30.19,11,1,12,0.00
2013-1-3,38,26,16,25,18,10,86,72,58,30.35,30.18,14,1,15,0.01
2013-1-4,37,28,19,23,20,14,84,70,51,30.39,30.28,13,1,14,0.00
2013-1-5,40,33,25,29,24,18,75,69,58,30.28,30.05,15,2,15,0.00
2013-1-6,38,31,20,30,23,16,85,72,63,30.37,30.02,20,3,22,0.00
2013-1-7,36,27,20,25,21,16,87,79,62,30.38,30.13,19,3,21,0.00
2013-1-8,46,37,29,36,28,23,83,70,52,30.19,30.08,15,2,16,0.00
2013-1-9,55,45,36,39,34,30,82,65,40,30.46,30.11,12,1,14,0.01
2013-1-10,58,44,36,57,38,27,96,80,58,30.43,29.73,19,4,19,0.37
2013-1-11,59,55,49,57,49,46,96,82,68,29.83,29.71,26,6,31,0.03
2013-1-12,57,47,31,50,41,28,92,83,59,29.90,29.75,21,4,22,1.12
2013-1-13,31,23,16,28,19,12,92,83,76,30.34,29.85,13,0,13,0.00
2013-1-14,25,19,15,16,13,9,84,76,66,30.48,30.34,12,1,13,0.00
2013-1-15,29,25,17,22,18,13,84,76,65,30.41,30.08,11,1,13,0.00
2013-1-16,39,30,19,23,19,13,88,66,43,30.12,29.98,11,1,13,0.02
2013-1-17,37,32,24,29,24,19,87,71,53,30.46,30.08,19,3,21,0.01
2013-1-18,44,34,23,30,23,18,84,67,48,30.47,30.09,26,5,26,0.00
2013-1-19,59,46,36,38,31,27,75,58,39,30.09,29.84,23,6,23,0.00
2013-1-20,44,27,21,31,13,7,75,57,44,30.32,30.04,24,4,24,0.00
2013-1-21,21,16,12,12,1,-7,73,52,36,30.37,30.25,24,5,24,0.00
2013-1-22,17,13,8,6,-1,-6,64,52,42,30.47,30.36,12,1,14,0.00
2013-1-23,37,25,13,21,13,6,81,60,45,30.37,30.11,24,2,24,0.00
2013-1-24,25,20,11,11,5,-2,69,52,43,30.61,30.27,20,4,21,0.00
2013-1-25,39,30,24,21,14,6,63,50,44,30.30,30.05,14,1,14,0.00
2013-1-26,34,27,18,20,13,7,72,56,40,30.38,30.18,14,1,14,0.00
2013-1-27,47,34,26,44,30,17,95,84,65,30.30,29.94,23,5,23,0.18
2013-1-28,63,56,47,58,53,44,95,90,81,29.94,29.81,23,6,24,0.00
2013-1-29,66,61,52,58,56,50,95,86,73,29.81,29.38,30,8,30,1.31
2013-1-30,52,41,26,50,35,14,95,81,59,29.83,29.30,26,6,30,0.19
2013-1-31,29,22,9,20,11,-3,72,62,49,30.34,29.83,27,6,27,0.00
2013-2-1,24,16,7,18,3,-4,84,56,43,30.48,30.21,22,3,22,0.00
2013-2-2,38,29,22,23,18,14,84,65,51,30.20,30.02,21,3,21,0.00
2013-2-3,33,28,24,26,19,14,90,69,46,30.13,29.96,26,3,27,0.00
2013-2-4,51,33,26,31,23,16,82,68,45,30.00,29.75,15,3,17,0.00
2013-2-5,50,36,28,34,28,23,84,73,52,30.10,29.83,17,2,17,0.00
2013-2-6,47,37,24,32,28,22,92,73,50,30.21,30.05,14,2,14,0.00
2013-2-7,49,41,35,43,35,29,96,80,57,30.05,29.81,23,3,25,0.27
2013-2-8,38,32,29,35,26,23,90,80,72,30.36,29.96,25,5,25,0.00
2013-2-9,41,33,29,32,26,22,80,74,63,30.34,30.02,16,3,16,0.00
2013-2-10,53,46,37,51,41,30,94,86,43,30.02,29.56,26,7,26,0.67
2013-2-11,49,40,33,32,26,23,73,56,44,30.11,29.67,22,6,25,0.00
2013-2-12,43,34,25,30,26,22,90,72,50,30.14,29.89,10,0,10,0.00
2013-2-13,41,36,34,29,29,27,82,76,63,29.91,29.80,5,0,5,0.00
2013-2-14,52,42,35,34,31,29,81,65,43,30.00,29.75,19,3,19,0.00
2013-2-15,36,32,25,31,20,11,82,64,36,30.22,30.00,20,4,21,0.00
2013-2-16,32,25,19,14,11,6,73,57,35,30.23,30.13,20,3,20,0.00
2013-2-17,41,31,18,23,18,13,82,61,37,30.19,29.91,18,4,19,0.00
2013-2-18,53,43,32,47,36,22,92,75,57,29.91,29.50,33,9,37,0.26
2013-2-19,32,25,21,23,14,10,72,61,50,30.25,29.80,24,5,24,0.00
2013-2-20,24,20,13,14,9,4,75,61,54,30.40,30.24,17,2,18,0.00
2013-2-21,31,24,18,30,20,13,94,84,68,30.32,29.80,26,3,26,0.00
2013-2-22,36,31,24,33,27,17,95,85,67,30.03,29.76,14,2,15,0.28
2013-2-23,32,24,16,20,16,12,86,71,54,30.02,29.96,12,1,12,0.07
2013-2-24,39,28,14,24,19,10,88,69,48,30.11,30.00,9,1,10,0.03
2013-2-25,44,36,26,31,27,22,84,71,55,30.06,29.64,21,3,23,0.04
2013-2-26,39,35,32,37,33,29,94,92,81,29.64,29.33,25,3,25,0.80
2013-2-27,34,32,31,31,29,28,93,89,86,29.81,29.57,16,3,17,0.06
2013-2-28,34,32,31,30,28,27,91,87,82,30.04,29.80,16,2,16,0.01
2013-3-1,32,30,26,29,27,22,92,88,77,30.15,30.01,17,3,17,0.06
2013-3-2,33,27,23,22,18,13,85,69,52,30.19,30.13,21,5,23,0.01
2013-3-3,36,26,16,20,16,13,88,69,43,30.18,30.03,6,0,6,0.00
2013-3-4,42,36,30,31,26,20,78,68,60,30.04,29.78,23,4,23,0.02
2013-3-5,39,33,30,31,27,21,96,79,65,30.02,29.75,29,5,30,0.06
2013-3-6,33,30,24,25,22,19,81,74,68,30.33,30.02,28,6,30,0.01
2013-3-7,39,31,24,28,24,19,84,74,62,30.40,30.32,11,1,15,0.01
2013-3-8,48,38,27,34,29,24,87,71,52,30.42,30.18,18,2,18,0.01
2013-3-9,59,48,39,40,35,30,82,62,44,30.18,29.77,22,5,23,0.08
2013-3-10,59,53,48,53,46,37,94,77,50,29.77,29.58,23,4,23,0.47
2013-3-11,48,36,33,46,32,22,90,82,69,29.94,29.61,21,3,21,0.01
2013-3-12,46,35,28,30,24,19,82,64,42,30.15,29.93,25,3,29,0.00
2013-3-13,38,32,27,24,17,15,75,55,40,30.37,30.14,23,5,23,0.00
2013-3-14,46,34,23,31,23,16,80,64,49,30.36,30.08,20,3,21,0.00
2013-3-15,63,58,31,49,42,27,87,57,45,30.08,29.58,17,2,17,0.00
2013-3-16,60,48,36,49,40,29,93,72,60,30.03,29.56,11,2,25,0.00
2013-3-17,37,34,32,32,29,24,91,81,70,30.08,29.77,17,2,17,0.46
2013-3-18,46,38,33,36,32,20,94,80,54,29.96,29.64,25,2,25,0.07
2013-3-19,44,37,28,20,16,10,62,43,26,30.17,29.96,22,3,25,0.01
2013-3-20,34,28,24,22,12,7,70,52,38,30.22,30.08,27,5,28,0.00
2013-3-21,34,26,18,18,12,6,68,55,38,30.10,29.97,13,1,16,0.00
2013-3-22,39,32,22,23,18,12,82,57,32,30.04,29.97,11,1,13,0.00
2013-3-23,52,42,35,29,25,19,66,51,35,30.02,29.80,19,2,19,0.00
2013-3-24,40,32,30,30,29,26,94,91,58,29.84,29.49,18,2,18,0.00
2013-3-25,33,30,28,28,26,24,94,86,74,30.12,29.71,21,4,25,0.24
2013-3-26,38,33,29,25,23,20,82,69,51,30.31,30.12,14,2,16,0.26
2013-3-27,43,33,24,23,21,18,79,61,40,30.37,30.30,7,0,7,0.00
2013-3-28,51,38,26,35,27,21,83,66,48,30.35,30.23,9,0,11,0.00
2013-3-29,56,47,39,42,36,30,78,64,57,30.23,30.15,9,0,12,0.00
2013-3-30,54,49,37,45,42,33,94,76,63,30.17,29.86,18,2,18,0.07
2013-3-31,64,52,45,48,44,32,94,75,36,29.88,29.77,16,1,16,0.01
2013-4-1,45,40,34,27,22,18,71,49,34,30.19,30.02,19,4,21,0.00
2013-4-2,45,35,26,21,18,12,71,52,30,30.32,30.19,14,0,15,0.00
2013-4-3,50,40,28,27,21,16,73,47,28,30.37,30.23,16,1,16,0.00
2013-4-4,57,51,32,26,22,17,69,33,25,30.22,29.98,11,1,13,0.00
2013-4-5,61,51,40,36,30,23,69,46,29,30.12,29.99,11,1,12,0.00
2013-4-6,69,55,50,43,35,31,52,47,28,30.00,29.67,26,5,36,0.00
2013-4-7,75,63,49,52,44,38,79,52,28,29.87,29.72,19,1,21,0.00
2013-4-8,74,69,63,60,57,53,71,64,53,29.83,29.71,21,5,23,0.01
2013-4-9,76,72,63,61,60,55,79,66,59,29.83,29.75,32,6,36,0.00
2013-4-10,80,67,50,66,61,48,95,82,59,29.76,29.54,31,3,31,1.82
2013-4-11,58,46,38,57,39,28,96,77,63,29.69,29.51,18,2,18,0.04
2013-4-12,43,40,37,32,30,28,73,67,59,29.95,29.66,17,2,23,0.00
2013-4-13,57,47,36,38,32,29,81,59,40,30.01,29.87,17,2,18,0.00
2013-4-14,75,62,48,52,44,38,70,54,33,29.89,29.58,28,7,29,0.00
2013-4-15,68,60,52,60,54,47,93,81,59,29.86,29.69,18,3,19,0.17
2013-4-16,52,47,44,49,44,41,94,90,81,30.13,29.83,20,4,20,1.26
2013-4-17,81,64,47,68,57,44,95,80,58,30.09,29.64,21,4,24,0.04
2013-4-18,74,61,40,65,56,34,96,87,70,29.69,29.49,33,6,36,2.62
2013-4-19,48,41,37,34,28,25,78,61,42,30.01,29.66,22,4,22,0.00
2013-4-20,51,42,30,32,28,22,89,60,34,30.33,30.01,12,1,15,0.00
2013-4-21,59,51,39,40,34,28,69,54,43,30.41,30.24,15,2,16,0.00
2013-4-22,68,54,44,46,36,33,70,53,31,30.25,29.95,13,1,18,0.00
2013-4-23,60,53,39,55,47,37,96,81,58,29.98,29.79,20,2,21,0.85
2013-4-24,50,44,36,38,33,29,93,67,45,30.21,29.92,18,2,22,0.10
2013-4-25,60,49,38,38,31,25,74,52,28,30.31,30.17,20,1,22,0.00
2013-4-26,60,52,44,46,41,34,81,65,54,30.34,30.23,16,2,19,0.00
2013-4-27,53,51,49,51,48,45,95,90,81,30.25,29.86,9,0,9,0.39
2013-4-28,59,55,49,54,51,47,96,88,77,29.88,29.81,13,0,13,0.04
2013-4-29,73,53,44,58,49,43,96,88,56,29.90,29.75,16,1,22,0.00
2013-4-30,82,72,59,61,56,49,84,60,32,29.89,29.75,24,2,24,0.00
2013-5-1,81,70,56,60,54,47,88,59,34,30.03,29.89,14,1,17,0.00
2013-5-2,77,65,47,61,57,44,92,77,55,30.08,29.99,15,1,16,0.28
2013-5-3,55,48,46,53,47,44,96,95,92,30.02,29.72,14,0,14,1.44
2013-5-4,47,45,42,45,43,41,96,94,92,29.98,29.80,10,0,12,0.32
2013-5-5,59,52,46,55,50,44,96,94,82,29.96,29.84,12,0,16,0.14
2013-5-6,66,59,53,58,53,50,93,81,66,29.92,29.85,13,1,14,0.00
2013-5-7,77,66,57,58,55,47,95,70,36,29.97,29.91,12,1,12,0.00
2013-5-8,80,61,52,58,52,44,92,74,29,29.98,29.90,2,0,9,0.00
2013-5-9,69,65,59,64,60,56,95,84,73,29.92,29.77,12,0,15,0.95
2013-5-10,67,59,52,59,54,48,93,83,68,29.94,29.77,16,2,17,0.00
2013-5-11,66,57,47,53,44,31,92,64,31,30.09,29.90,24,2,24,0.00
2013-5-12,59,50,38,37,32,26,79,52,29,30.17,30.08,18,1,18,0.00
2013-5-13,69,62,39,42,35,25,85,40,24,30.17,29.98,12,0,12,0.00
2013-5-14,90,72,54,59,51,42,69,49,28,29.98,29.71,16,1,17,0.00
2013-5-15,89,77,70,64,56,48,71,49,36,29.85,29.74,12,1,15,0.00
2013-5-16,79,72,62,65,61,56,87,68,51,29.89,29.75,16,1,17,0.00
2013-5-17,77,68,61,67,61,57,92,80,60,29.92,29.86,13,0,19,0.34
2013-5-18,79,70,61,65,62,59,95,77,58,29.96,29.84,11,0,11,0.01
2013-5-19,86,75,64,73,67,62,93,77,58,29.86,29.66,19,1,21,0.00
2013-5-20,82,74,62,68,64,58,94,73,55,29.85,29.64,21,2,24,0.66
2013-5-21,79,70,62,66,63,60,97,80,56,29.81,29.64,19,1,19,0.22
2013-5-22,75,68,63,63,58,53,90,71,47,29.78,29.60,16,0,16,0.00
2013-5-23,63,59,52,58,52,47,92,79,69,30.20,29.78,18,1,18,0.08
2013-5-24,67,56,43,47,40,34,91,59,31,30.36,30.21,12,1,13,0.00
2013-5-25,66,56,47,54,48,43,89,74,58,30.32,30.12,11,0,11,0.03
2013-5-26,71,64,54,61,54,47,80,72,63,30.17,29.96,14,1,16,0.00
2013-5-27,81,70,64,68,63,58,95,79,60,29.99,29.69,22,1,22,0.85
2013-5-28,82,73,64,69,65,61,91,75,58,29.86,29.72,29,2,29,0.10
2013-5-29,84,76,65,68,63,58,81,67,51,29.91,29.78,18,2,22,0.00
2013-5-30,81,75,66,69,66,62,92,74,62,29.86,29.74,39,3,39,0.40
2013-5-31,77,72,63,71,67,61,95,84,71,29.84,29.69,20,2,20,0.93
2013-6-1,72,66,60,66,63,58,96,91,77,29.81,29.64,19,2,19,0.57
2013-6-2,66,62,58,59,56,53,92,83,69,29.97,29.80,13,1,13,0.01
2013-6-3,67,60,52,54,50,47,90,72,50,30.06,29.96,9,0,10,0.00
2013-6-4,71,62,50,57,53,48,95,75,53,30.05,29.95,10,0,11,0.00
2013-6-5,80,69,56,63,58,53,94,69,41,29.97,29.78,7,0,7,0.00
2013-6-6,78,69,63,62,60,57,87,74,52,29.80,29.74,14,1,15,0.02
2013-6-7,74,66,57,60,55,52,88,70,51,29.85,29.78,14,1,15,0.00
2013-6-8,78,68,55,59,55,52,94,65,43,29.91,29.83,9,0,11,0.00
2013-6-9,78,68,62,64,60,56,95,75,53,29.91,29.74,16,1,16,0.43
2013-6-10,76,68,62,66,62,60,95,81,58,29.85,29.71,13,0,13,0.04
2013-6-11,89,80,62,73,68,59,92,67,50,29.91,29.78,14,1,15,0.00
2013-6-12,92,84,74,74,70,68,85,65,48,29.87,29.61,23,1,23,0.00
2013-6-13,84,78,66,70,58,49,84,53,34,29.92,29.63,16,2,17,0.00
2013-6-14,82,72,59,60,56,52,88,60,39,30.03,29.86,12,0,15,0.00
2013-6-15,85,75,64,69,63,58,94,68,50,30.02,29.84,20,1,20,0.66
2013-6-16,81,74,66,72,69,64,96,85,71,29.98,29.85,11,0,12,0.60
2013-6-17,85,74,65,72,67,62,95,80,60,29.89,29.79,17,0,19,0.00
2013-6-18,88,75,63,70,64,58,95,70,40,29.91,29.82,15,0,15,0.00
2013-6-19,84,78,62,67,63,58,89,62,46,30.01,29.91,9,0,9,0.00
2013-6-20,87,77,66,69,66,63,94,69,46,30.06,29.99,10,0,10,0.00
2013-6-21,89,80,72,70,67,64,84,66,46,30.04,29.93,15,1,15,0.00
2013-6-22,88,73,67,74,67,63,93,82,57,30.03,29.93,17,0,21,0.74
2013-6-23,78,69,66,71,66,64,95,90,71,30.01,29.89,18,1,23,0.59
2013-6-24,88,77,66,75,70,65,96,80,57,30.02,29.86,13,0,15,0.01
2013-6-25,90,81,73,74,72,70,90,74,56,29.91,29.73,18,1,18,0.00
2013-6-26,87,78,74,77,72,65,93,82,70,29.80,29.64,18,1,21,0.09
2013-6-27,92,80,73,73,70,63,95,73,39,29.79,29.69,18,1,18,0.00
2013-6-28,86,79,72,69,61,50,88,58,32,29.76,29.60,20,1,21,0.00
2013-6-29,78,70,65,66,61,58,92,74,59,29.65,29.57,22,1,22,0.24
2013-6-30,73,68,62,66,61,57,94,80,61,29.84,29.65,19,2,19,0.22
2013-7-1,75,68,60,62,57,51,91,67,51,29.91,29.83,17,2,17,0.05
2013-7-2,67,63,60,64,59,55,94,87,69,29.98,29.87,16,1,16,0.59
2013-7-3,79,70,60,62,59,56,96,73,50,30.03,29.95,10,0,12,0.00
2013-7-4,82,73,62,64,60,56,92,67,43,30.04,29.95,11,0,11,0.00
2013-7-5,81,74,65,68,65,62,96,74,55,30.04,29.95,11,1,11,0.00
2013-7-6,85,73,67,70,66,59,95,79,50,30.00,29.90,11,0,13,0.00
2013-7-7,87,76,64,72,67,60,89,74,55,30.00,29.92,15,0,15,0.00
2013-7-8,88,78,72,75,70,68,88,78,61,30.03,29.93,11,0,14,0.00
2013-7-9,92,83,76,76,73,70,86,71,51,29.97,29.85,11,0,11,0.00
2013-7-10,85,78,71,75,71,66,94,80,60,29.94,29.80,22,1,22,1.00
2013-7-11,81,74,64,66,60,55,92,65,44,30.00,29.92,13,1,15,0.00
2013-7-12,83,71,59,61,55,47,91,61,29,30.06,29.98,9,0,9,0.00
2013-7-13,82,73,60,64,60,56,92,67,46,30.05,29.97,11,0,11,0.00
2013-7-14,86,75,63,74,67,60,94,77,55,30.09,29.99,10,0,12,0.28
2013-7-15,88,79,72,75,72,69,94,80,61,30.18,30.08,7,0,10,0.01
2013-7-16,90,84,73,73,71,68,92,66,50,30.24,30.16,9,0,9,0.00
2013-7-17,93,86,72,76,72,69,94,66,46,30.25,30.12,3,0,4,0.00
2013-7-18,94,84,73,76,73,69,94,71,48,30.14,29.95,5,0,5,0.00
2013-7-19,92,84,74,76,73,71,88,71,53,29.95,29.79,11,0,11,0.00
2013-7-20,90,80,72,76,71,68,90,75,55,29.85,29.73,12,0,14,0.00
2013-7-21,81,76,70,72,71,68,96,83,69,29.88,29.77,9,0,9,0.00
2013-7-22,88,78,68,73,70,66,96,78,57,29.78,29.71,6,0,6,0.72
2013-7-23,88,81,70,75,69,61,87,68,50,29.83,29.72,13,1,16,0.00
2013-7-24,75,66,60,62,57,50,84,73,44,29.98,29.83,7,0,14,0.00
2013-7-25,80,68,55,62,56,50,94,69,42,30.05,29.97,7,0,7,0.00
2013-7-26,73,68,61,68,63,57,94,83,68,30.02,29.87,9,0,9,0.02
2013-7-27,73,65,54,65,55,48,94,72,43,29.94,29.88,18,1,19,0.01
2013-7-28,77,64,50,56,52,48,94,68,40,29.99,29.93,11,0,15,0.00
2013-7-29,78,64,53,63,56,51,95,76,43,30.10,29.99,1,0,5,0.00
2013-7-30,71,68,64,68,65,61,96,89,77,30.09,29.97,13,0,13,0.89
2013-7-31,77,70,66,71,67,64,97,88,72,29.99,29.92,11,0,13,0.02
2013-8-1,84,73,64,68,63,57,96,76,41,30.00,29.92,10,0,11,0.00
2013-8-2,80,71,67,72,64,60,95,80,70,29.92,29.86,6,0,12,0.32
2013-8-3,83,75,65,70,66,60,96,76,51,30.04,29.86,11,1,11,0.00
2013-8-4,79,73,59,62,59,55,95,64,46,30.12,30.03,4,0,6,0.00
2013-8-5,76,68,60,66,61,58,93,79,57,30.05,29.83,16,0,16,0.00
2013-8-6,88,76,68,73,69,65,96,81,52,29.86,29.77,10,0,11,0.00
2013-8-7,87,77,71,72,70,67,96,80,56,29.85,29.75,12,0,12,0.01
2013-8-8,79,72,69,72,69,68,96,93,77,29.89,29.81,6,0,11,0.01
2013-8-9,81,72,63,68,65,61,95,79,54,30.00,29.88,9,0,9,0.00
2013-8-10,82,74,66,68,64,58,91,71,46,30.06,30.00,14,1,14,0.00
2013-8-11,83,70,59,64,59,55,92,70,41,30.08,29.99,7,0,8,0.00
2013-8-12,79,72,63,74,68,61,94,88,77,30.01,29.84,5,0,7,0.10
2013-8-13,76,69,60,68,61,50,95,77,56,30.07,29.87,16,1,16,0.01
2013-8-14,72,64,51,55,52,49,95,67,48,30.15,30.07,12,0,12,0.00
2013-8-15,73,62,52,56,52,48,95,73,45,30.12,30.03,11,0,11,0.00
2013-8-16,75,66,55,58,55,52,94,70,46,30.09,30.04,13,0,16,0.00
2013-8-17,78,64,55,60,56,53,93,76,48,30.14,30.07,12,0,12,0.00
2013-8-18,82,74,58,64,62,56,92,67,49,30.11,30.03,6,0,7,0.00
2013-8-19,84,73,62,67,63,60,96,73,47,30.07,29.98,6,0,7,0.00
2013-8-20,86,74,62,68,65,60,96,75,49,30.06,29.98,7,0,7,0.00
2013-8-21,88,77,68,69,67,65,91,72,47,30.06,29.96,10,0,11,0.00
2013-8-22,88,82,69,73,69,66,91,68,55,30.03,29.94,11,0,11,0.00
2013-8-23,86,77,68,69,67,63,92,73,50,30.04,29.98,10,0,11,0.00
2013-8-24,86,76,66,68,65,63,91,70,49,30.15,30.04,5,0,12,0.00
2013-8-25,88,76,62,66,62,59,93,66,39,30.21,30.11,11,0,12,0.00
2013-8-26,91,80,71,75,70,64,95,75,46,30.14,29.98,7,0,9,0.00
2013-8-27,92,81,72,74,71,67,93,72,46,30.00,29.89,7,0,7,0.00
2013-8-28,93,82,71,72,69,66,87,65,45,29.95,29.89,7,0,9,0.00
2013-8-29,92,78,70,76,70,67,91,78,53,29.96,29.89,6,0,9,0.00
2013-8-30,96,87,73,76,72,68,94,65,40,29.89,29.74,10,0,10,0.00
2013-8-31,97,85,75,75,72,67,89,67,39,29.76,29.62,10,0,12,0.00
2013-9-1,87,79,71,74,72,70,95,81,58,29.76,29.67,13,0,13,0.00
2013-9-2,82,73,65,70,61,57,91,67,46,29.90,29.76,13,1,15,0.00
2013-9-3,79,68,57,60,57,54,95,70,44,30.02,29.89,11,0,11,0.00
2013-9-4,84,70,55,62,58,53,95,69,41,30.10,30.01,7,0,10,0.00
2013-9-5,88,72,58,64,60,56,95,69,37,30.14,30.07,6,0,7,0.00
2013-9-6,86,73,60,65,62,58,95,71,40,30.12,29.98,10,0,12,0.00
2013-9-7,90,77,64,68,65,62,92,68,41,29.99,29.84,9,0,12,0.00
2013-9-8,84,75,70,73,69,66,95,83,65,29.92,29.83,9,0,9,0.29
2013-9-9,94,82,72,74,71,63,94,72,37,29.89,29.83,7,0,9,0.00
2013-9-10,95,84,73,73,69,63,88,65,37,30.00,29.89,9,0,9,0.00
2013-9-11,95,85,70,70,67,63,89,58,36,30.05,29.93,7,0,7,0.00
2013-9-12,82,73,63,68,62,50,92,70,46,30.01,29.90,15,1,15,0.10
2013-9-13,71,63,54,56,49,37,86,64,30,30.08,29.99,15,1,16,0.00
2013-9-14,73,60,45,49,45,37,93,62,28,30.11,29.99,7,0,10,0.00
2013-9-15,78,63,53,63,51,46,91,67,44,30.03,29.93,13,1,14,0.01
2013-9-16,70,63,57,61,55,51,90,75,55,30.21,30.03,15,1,16,0.00
2013-9-17,74,64,55,60,54,51,86,72,52,30.20,30.02,9,0,11,0.00
2013-9-18,83,71,63,70,65,57,96,80,60,30.03,29.90,13,0,15,0.34
2013-9-19,90,78,72,72,70,66,92,75,47,29.92,29.78,15,1,17,0.00
2013-9-20,77,68,59,70,64,52,96,89,72,29.85,29.79,13,0,13,0.41
2013-9-21,70,60,52,52,50,47,88,70,47,29.89,29.82,15,1,16,0.00
2013-9-22,74,59,46,52,49,44,95,71,39,29.97,29.88,5,0,10,0.00
2013-9-23,74,62,50,52,48,44,92,64,35,30.00,29.89,10,0,14,0.00
2013-9-24,78,65,53,62,55,49,87,71,49,29.92,29.76,11,0,11,0.01
2013-9-25,81,70,61,64,60,58,93,73,46,29.81,29.75,13,0,13,0.00
2013-9-26,82,69,59,64,58,52,93,72,40,29.97,29.81,6,0,9,0.00
2013-9-27,81,69,56,58,53,48,84,60,32,30.06,29.96,10,0,10,0.00
2013-9-28,82,70,59,62,58,54,85,66,46,30.01,29.88,19,1,22,0.00
2013-9-29,73,64,52,63,52,45,94,70,39,29.99,29.90,12,1,13,0.17
2013-9-30,74,58,47,63,54,45,96,90,63,29.94,29.84,8,0,10,0.00
2013-10-1,75,68,63,67,65,61,95,89,74,29.97,29.88,11,0,12,0.00
2013-10-2,82,72,67,69,67,65,97,87,60,30.01,29.90,10,0,11,0.01
2013-10-3,83,74,67,72,67,65,94,81,60,29.92,29.80,20,1,20,0.31
2013-10-4,85,75,67,70,67,65,95,78,58,29.92,29.84,15,1,16,0.00
2013-10-5,78,71,56,72,68,51,96,90,73,29.88,29.76,12,0,12,0.04
2013-10-6,59,53,49,52,44,38,92,72,47,29.82,29.76,11,0,14,0.01
2013-10-7,68,55,45,48,46,43,94,72,42,30.09,29.80,15,0,16,0.00
2013-10-8,74,60,45,51,47,43,94,67,36,30.15,30.07,9,0,9,0.00
2013-10-9,72,55,44,51,46,42,94,74,39,30.14,30.07,5,0,6,0.00
2013-10-10,78,70,50,62,58,49,95,65,48,30.09,29.95,7,0,11,0.00
2013-10-11,78,66,56,61,56,54,95,73,46,29.99,29.86,15,0,17,0.00
2013-10-12,74,64,55,65,56,42,95,77,53,30.14,29.89,9,0,11,0.18
2013-10-13,72,58,46,44,38,31,78,51,24,30.32,30.14,11,0,11,0.00
2013-10-14,68,56,43,49,42,35,81,60,39,30.30,30.01,10,0,10,0.00
2013-10-15,66,61,54,63,57,48,95,85,70,30.01,29.81,18,0,18,0.22
2013-10-16,56,50,42,48,42,40,92,76,58,29.98,29.89,13,0,13,0.01
2013-10-17,61,50,44,47,43,39,95,77,46,29.95,29.85,5,0,10,0.02
2013-10-18,58,50,42,45,41,37,93,71,50,29.98,29.88,13,0,13,0.01
2013-10-19,56,46,39,41,37,33,95,73,46,29.95,29.88,11,0,13,0.32
2013-10-20,68,54,40,44,40,36,86,62,36,29.90,29.78,22,2,23,0.00
2013-10-21,53,47,35,44,38,32,89,72,48,30.01,29.84,16,1,19,0.00
2013-10-22,54,42,32,45,36,30,92,82,59,30.01,29.74,22,2,22,0.11
2013-10-23,47,41,36,35,31,26,90,69,47,30.09,29.91,17,2,19,0.00
2013-10-24,43,38,28,35,26,22,86,63,44,30.36,30.06,19,3,22,0.00
2013-10-25,53,39,25,31,26,22,89,63,36,30.47,30.17,14,0,14,0.00
2013-10-26,62,48,37,41,32,26,69,54,35,30.17,29.94,17,2,19,0.00
2013-10-27,58,49,30,32,29,25,88,49,29,30.08,29.98,6,0,11,0.00
2013-10-28,66,48,32,42,36,29,91,65,35,30.21,30.02,7,0,7,0.00
2013-10-29,55,50,44,54,43,33,96,78,57,30.21,30.02,13,0,13,0.27
2013-10-30,70,61,55,66,59,54,97,94,78,30.03,29.83,10,0,12,0.15
2013-10-31,65,60,48,62,58,45,96,93,81,29.77,29.29,18,2,23,1.26
2013-11-1,59,50,43,46,42,38,95,78,51,29.78,29.55,15,0,15,0.01
2013-11-2,52,45,36,42,38,32,89,76,51,30.14,29.77,17,1,18,0.00
2013-11-3,56,48,33,37,32,26,90,56,32,30.26,30.13,12,0,12,0.00
2013-11-4,56,51,46,44,40,34,71,65,55,30.18,30.08,21,1,21,0.00
2013-11-5,60,54,50,51,48,44,94,80,68,30.24,29.97,20,1,20,0.13
2013-11-6,57,46,36,53,42,32,92,86,79,30.20,29.86,21,2,23,0.42
2013-11-7,53,40,29,37,31,27,91,71,44,30.33,30.20,12,0,13,0.00
2013-11-8,54,42,28,36,30,26,94,65,38,30.34,30.03,20,1,22,0.00
2013-11-9,65,52,44,41,36,33,71,56,34,30.17,29.99,16,2,22,0.00
2013-11-10,52,44,36,35,31,28,79,62,40,30.38,30.17,17,2,17,0.00
2013-11-11,57,44,28,45,35,25,92,72,55,30.45,30.07,20,3,24,0.03
2013-11-12,32,26,20,25,18,16,86,71,55,30.73,30.44,20,4,20,0.00
2013-11-13,41,33,18,20,17,14,88,55,33,30.67,30.26,16,3,18,0.00
2013-11-14,54,44,31,27,22,17,63,42,27,30.26,29.99,23,5,23,0.00
2013-11-15,54,47,42,42,32,26,82,56,39,30.02,29.89,15,1,17,0.00
2013-11-16,63,56,47,60,51,42,95,85,72,29.89,29.56,31,6,31,0.07
2013-11-17,73,63,46,64,53,35,92,71,29,29.89,29.24,33,6,35,0.11
2013-11-18,51,44,39,40,34,25,84,68,37,30.24,29.89,21,2,21,0.00
2013-11-19,45,37,29,28,26,23,82,66,43,30.32,30.19,9,0,9,0.00
2013-11-20,48,39,32,38,31,26,82,74,64,30.20,30.02,13,1,15,0.03
2013-11-21,50,48,46,48,44,38,96,87,65,30.14,30.04,12,1,15,0.41
2013-11-22,49,38,31,48,34,27,96,86,76,30.48,30.13,22,5,22,0.01
2013-11-23,31,25,17,28,17,10,88,69,55,30.69,30.47,24,6,29,0.00
2013-11-24,28,19,12,12,7,4,79,60,38,30.75,30.41,12,1,12,0.00
2013-11-25,33,30,24,23,19,12,72,63,51,30.42,30.13,16,2,16,0.00
2013-11-26,37,30,20,27,18,8,73,63,50,30.19,30.02,24,7,25,0.00
2013-11-27,24,18,15,9,7,4,68,61,47,30.31,30.17,19,5,21,0.00
2013-11-28,42,30,18,23,16,8,73,57,39,30.47,30.22,17,2,17,0.00
2013-11-29,42,35,20,25,22,16,84,59,44,30.58,30.35,11,1,11,0.00
2013-11-30,54,42,31,34,29,24,76,62,41,30.35,30.06,13,1,16,0.00
2013-12-1,55,43,32,38,34,29,92,70,46,30.08,29.85,6,0,9,0.00
2013-12-2,52,43,36,44,37,31,92,79,71,29.85,29.64,9,1,10,0.00
2013-12-3,55,48,44,52,46,42,97,94,85,29.67,29.58,15,1,16,0.00
2013-12-4,63,54,41,56,49,35,97,86,72,29.78,29.46,22,3,23,0.01
2013-12-5,27,25,20,21,16,12,85,69,60,30.27,30.03,18,5,19,0.00
2013-12-6,22,20,14,15,10,4,77,64,55,30.57,30.25,17,6,18,0.00
2013-12-7,22,16,9,8,5,3,77,61,46,30.69,30.46,13,3,14,0.00
2013-12-8,26,23,19,23,18,7,92,83,57,30.45,29.99,12,1,14,0.00
2013-12-9,26,22,19,22,14,10,88,71,58,30.28,30.04,16,2,16,0.00
2013-12-10,33,21,13,14,10,6,77,63,41,30.25,30.21,17,3,17,0.00
2013-12-11,30,17,7,19,4,-5,78,56,43,30.64,30.26,22,5,24,0.00
2013-12-12,31,20,4,13,7,-5,72,55,42,30.64,30.25,19,3,19,0.00
2013-12-13,35,28,19,31,21,12,93,76,54,30.25,29.96,13,1,14,0.12
2013-12-14,33,31,25,32,29,21,95,92,82,30.08,29.81,24,3,24,0.12
2013-12-15,29,26,23,23,20,16,86,78,68,30.15,30.05,14,2,16,0.00
2013-12-16,28,26,24,25,23,21,93,91,88,30.11,29.99,14,1,14,0.01
2013-12-17,37,29,23,29,23,16,93,80,62,30.22,30.08,14,1,18,0.14
2013-12-18,42,34,21,34,23,14,79,64,45,30.23,29.90,18,4,27,0.20
2013-12-19,53,47,39,48,41,34,88,80,73,29.90,29.74,23,4,24,0.00
2013-12-20,65,54,34,57,50,32,93,84,75,29.81,29.61,22,5,27,0.06
2013-12-21,34,33,32,32,31,30,95,94,93,29.79,29.52,15,2,17,0.98
2013-12-22,34,31,26,32,28,21,95,89,79,30.21,29.57,15,3,17,0.05
2013-12-23,26,18,10,22,12,0,82,74,65,30.55,30.21,17,4,17,2.00
2013-12-24,21,19,4,11,4,-5,73,53,36,30.62,30.35,20,3,20,0.00
2013-12-25,33,25,21,28,16,11,81,67,59,30.36,30.19,17,4,18,0.00
2013-12-26,42,33,23,28,24,19,87,71,52,30.35,30.22,16,2,17,1.00
2013-12-27,34,30,28,27,25,24,84,80,75,30.31,30.26,7,1,9,0.00
2013-12-28,53,41,34,34,30,28,79,64,43,30.18,29.86,13,2,17,0.00
2013-12-29,40,27,13,32,21,6,91,76,66,30.24,29.80,24,5,24,0.00
2013-12-30,24,12,5,11,2,-2,74,62,42,30.36,30.20,16,2,16,0.00
2013-12-31,36,30,20,25,17,11,71,60,50,30.39,30.14,20,2,21,0.00
2014-1-1,43,33,21,30,26,18,93,76,56,30.14,30.00,16,2,16,0.00
2014-1-2,21,14,6,18,10,0,91,84,78,30.46,30.00,21,7,23,0.00